sensor_id;sensor_type;location;lat;lon;timestamp;temperature;humidity
947;DHT22;460;48.734;9.152;2023-04-15T00:00:50;4.90;92.70
947;DHT22;460;48.734;9.152;2023-04-15T00:03:19;4.90;92.40
947;DHT22;460;48.734;9.152;2023-04-15T00:05:47;4.90;92.80
947;DHT22;460;48.734;9.152;2023-04-15T00:08:15;4.90;92.20
947;DHT22;460;48.734;9.152;2023-04-15T00:10:44;4.90;92.50
947;DHT22;460;48.734;9.152;2023-04-15T00:13:11;4.90;93.20
947;DHT22;460;48.734;9.152;2023-04-15T00:15:37;4.90;93.00
947;DHT22;460;48.734;9.152;2023-04-15T00:18:06;4.90;92.70
947;DHT22;460;48.734;9.152;2023-04-15T00:20:33;4.80;92.60
947;DHT22;460;48.734;9.152;2023-04-15T00:23:01;4.80;92.70
947;DHT22;460;48.734;9.152;2023-04-15T00:25:28;4.70;92.90
947;DHT22;460;48.734;9.152;2023-04-15T00:27:55;4.70;93.10
947;DHT22;460;48.734;9.152;2023-04-15T00:30:22;4.60;93.30
947;DHT22;460;48.734;9.152;2023-04-15T00:32:50;4.60;93.30
947;DHT22;460;48.734;9.152;2023-04-15T00:35:18;4.60;93.20
947;DHT22;460;48.734;9.152;2023-04-15T00:37:45;4.60;93.20
947;DHT22;460;48.734;9.152;2023-04-15T00:40:12;4.60;93.50
947;DHT22;460;48.734;9.152;2023-04-15T00:42:40;4.60;93.30
947;DHT22;460;48.734;9.152;2023-04-15T00:45:07;4.60;93.80
947;DHT22;460;48.734;9.152;2023-04-15T00:47:35;4.60;94.30
947;DHT22;460;48.734;9.152;2023-04-15T00:50:03;4.50;94.70
947;DHT22;460;48.734;9.152;2023-04-15T00:52:31;4.50;94.90
947;DHT22;460;48.734;9.152;2023-04-15T00:54:59;4.60;94.40
947;DHT22;460;48.734;9.152;2023-04-15T00:57:27;4.70;94.10
947;DHT22;460;48.734;9.152;2023-04-15T00:59:55;4.70;94.00
947;DHT22;460;48.734;9.152;2023-04-15T01:02:22;4.70;94.30
947;DHT22;460;48.734;9.152;2023-04-15T01:04:49;4.60;94.40
947;DHT22;460;48.734;9.152;2023-04-15T01:07:17;4.60;94.60
947;DHT22;460;48.734;9.152;2023-04-15T01:09:46;4.50;94.30
947;DHT22;460;48.734;9.152;2023-04-15T01:12:13;4.40;94.00
947;DHT22;460;48.734;9.152;2023-04-15T01:14:41;4.40;94.20
947;DHT22;460;48.734;9.152;2023-04-15T01:17:08;4.50;93.90
947;DHT22;460;48.734;9.152;2023-04-15T01:19:36;4.50;93.80
947;DHT22;460;48.734;9.152;2023-04-15T01:22:05;4.50;93.60
947;DHT22;460;48.734;9.152;2023-04-15T01:24:33;4.50;93.50
947;DHT22;460;48.734;9.152;2023-04-15T01:27:03;4.50;93.70
947;DHT22;460;48.734;9.152;2023-04-15T01:29:31;4.40;93.90
947;DHT22;460;48.734;9.152;2023-04-15T01:31:58;4.40;94.40
947;DHT22;460;48.734;9.152;2023-04-15T01:34:25;4.40;94.30
947;DHT22;460;48.734;9.152;2023-04-15T01:36:52;4.40;94.40
947;DHT22;460;48.734;9.152;2023-04-15T01:39:19;4.30;94.30
947;DHT22;460;48.734;9.152;2023-04-15T01:41:47;4.30;94.10
947;DHT22;460;48.734;9.152;2023-04-15T01:44:16;4.30;94.10
947;DHT22;460;48.734;9.152;2023-04-15T01:46:44;4.30;94.40
947;DHT22;460;48.734;9.152;2023-04-15T01:49:11;4.30;94.30
947;DHT22;460;48.734;9.152;2023-04-15T01:51:39;4.30;94.40
947;DHT22;460;48.734;9.152;2023-04-15T01:54:06;4.20;94.40
947;DHT22;460;48.734;9.152;2023-04-15T01:56:33;4.20;94.20
947;DHT22;460;48.734;9.152;2023-04-15T01:59:01;4.10;94.70
947;DHT22;460;48.734;9.152;2023-04-15T02:01:30;4.10;94.90
947;DHT22;460;48.734;9.152;2023-04-15T02:03:58;4.10;94.50
947;DHT22;460;48.734;9.152;2023-04-15T02:06:26;4.10;94.40
947;DHT22;460;48.734;9.152;2023-04-15T02:08:53;4.00;94.30
947;DHT22;460;48.734;9.152;2023-04-15T02:11:21;4.00;94.30
947;DHT22;460;48.734;9.152;2023-04-15T02:13:48;4.00;94.80
947;DHT22;460;48.734;9.152;2023-04-15T02:16:15;4.00;95.40
947;DHT22;460;48.734;9.152;2023-04-15T02:18:44;3.90;95.70
947;DHT22;460;48.734;9.152;2023-04-15T02:21:11;3.80;96.10
947;DHT22;460;48.734;9.152;2023-04-15T02:23:38;3.80;96.40
947;DHT22;460;48.734;9.152;2023-04-15T02:26:06;3.90;96.70
947;DHT22;460;48.734;9.152;2023-04-15T02:28:33;3.90;97.20
947;DHT22;460;48.734;9.152;2023-04-15T02:31:04;3.90;96.90
947;DHT22;460;48.734;9.152;2023-04-15T02:33:31;3.80;97.30
947;DHT22;460;48.734;9.152;2023-04-15T02:35:59;3.80;96.90
947;DHT22;460;48.734;9.152;2023-04-15T02:38:27;3.90;96.50
947;DHT22;460;48.734;9.152;2023-04-15T02:40:57;3.90;96.40
947;DHT22;460;48.734;9.152;2023-04-15T02:43:24;3.80;96.80
947;DHT22;460;48.734;9.152;2023-04-15T02:45:51;3.80;96.90
947;DHT22;460;48.734;9.152;2023-04-15T02:48:19;3.80;96.90
947;DHT22;460;48.734;9.152;2023-04-15T02:50:46;3.70;96.70
947;DHT22;460;48.734;9.152;2023-04-15T02:53:15;3.70;96.60
947;DHT22;460;48.734;9.152;2023-04-15T02:55:42;3.60;96.60
947;DHT22;460;48.734;9.152;2023-04-15T02:58:09;3.60;96.60
947;DHT22;460;48.734;9.152;2023-04-15T03:00:37;3.50;96.40
947;DHT22;460;48.734;9.152;2023-04-15T03:03:04;3.50;96.10
947;DHT22;460;48.734;9.152;2023-04-15T03:05:33;3.50;96.10
947;DHT22;460;48.734;9.152;2023-04-15T03:08:00;3.50;96.10
947;DHT22;460;48.734;9.152;2023-04-15T03:10:30;3.40;96.30
947;DHT22;460;48.734;9.152;2023-04-15T03:12:56;3.40;96.20
947;DHT22;460;48.734;9.152;2023-04-15T03:15:24;3.50;96.30
947;DHT22;460;48.734;9.152;2023-04-15T03:17:53;3.50;96.40
947;DHT22;460;48.734;9.152;2023-04-15T03:20:21;3.50;96.50
947;DHT22;460;48.734;9.152;2023-04-15T03:22:48;3.40;96.60
947;DHT22;460;48.734;9.152;2023-04-15T03:25:16;3.40;96.90
947;DHT22;460;48.734;9.152;2023-04-15T03:27:44;3.30;96.70
947;DHT22;460;48.734;9.152;2023-04-15T03:30:11;3.30;97.00
947;DHT22;460;48.734;9.152;2023-04-15T03:32:39;3.30;97.20
947;DHT22;460;48.734;9.152;2023-04-15T03:35:06;3.40;97.20
947;DHT22;460;48.734;9.152;2023-04-15T03:37:33;3.50;97.00
947;DHT22;460;48.734;9.152;2023-04-15T03:40:01;3.40;96.70
947;DHT22;460;48.734;9.152;2023-04-15T03:42:28;3.50;96.50
947;DHT22;460;48.734;9.152;2023-04-15T03:44:56;3.50;96.50
947;DHT22;460;48.734;9.152;2023-04-15T03:47:23;3.50;96.50
947;DHT22;460;48.734;9.152;2023-04-15T03:49:50;3.30;96.70
947;DHT22;460;48.734;9.152;2023-04-15T03:52:16;3.30;96.80
947;DHT22;460;48.734;9.152;2023-04-15T03:54:43;3.40;96.40
947;DHT22;460;48.734;9.152;2023-04-15T03:57:10;3.40;96.20
947;DHT22;460;48.734;9.152;2023-04-15T03:59:37;3.40;96.30
947;DHT22;460;48.734;9.152;2023-04-15T04:02:05;3.30;96.50
947;DHT22;460;48.734;9.152;2023-04-15T04:04:32;3.30;96.50
947;DHT22;460;48.734;9.152;2023-04-15T04:06:59;3.30;97.10
947;DHT22;460;48.734;9.152;2023-04-15T04:09:25;3.20;97.50
947;DHT22;460;48.734;9.152;2023-04-15T04:11:53;3.20;97.60
947;DHT22;460;48.734;9.152;2023-04-15T04:14:20;3.20;97.80
947;DHT22;460;48.734;9.152;2023-04-15T04:16:53;3.20;98.10
947;DHT22;460;48.734;9.152;2023-04-15T04:19:21;3.20;97.60
947;DHT22;460;48.734;9.152;2023-04-15T04:21:48;3.20;97.40
947;DHT22;460;48.734;9.152;2023-04-15T04:24:15;3.20;97.40
947;DHT22;460;48.734;9.152;2023-04-15T04:26:42;3.20;97.40
947;DHT22;460;48.734;9.152;2023-04-15T04:29:08;3.10;97.10
947;DHT22;460;48.734;9.152;2023-04-15T04:31:35;3.10;97.10
947;DHT22;460;48.734;9.152;2023-04-15T04:34:02;3.10;97.00
947;DHT22;460;48.734;9.152;2023-04-15T04:36:30;3.10;96.90
947;DHT22;460;48.734;9.152;2023-04-15T04:38:57;3.00;96.90
947;DHT22;460;48.734;9.152;2023-04-15T04:41:24;3.00;97.00
947;DHT22;460;48.734;9.152;2023-04-15T04:46:55;3.10;96.90
947;DHT22;460;48.734;9.152;2023-04-15T04:49:22;3.20;96.80
947;DHT22;460;48.734;9.152;2023-04-15T04:51:51;3.20;96.70
947;DHT22;460;48.734;9.152;2023-04-15T04:54:17;3.30;96.70
947;DHT22;460;48.734;9.152;2023-04-15T04:56:45;3.20;96.70
947;DHT22;460;48.734;9.152;2023-04-15T04:59:12;3.30;96.80
947;DHT22;460;48.734;9.152;2023-04-15T05:01:39;3.30;96.90
947;DHT22;460;48.734;9.152;2023-04-15T05:04:06;3.30;97.00
947;DHT22;460;48.734;9.152;2023-04-15T05:06:33;3.20;97.30
947;DHT22;460;48.734;9.152;2023-04-15T05:09:02;3.20;98.00
947;DHT22;460;48.734;9.152;2023-04-15T05:11:29;3.20;97.70
947;DHT22;460;48.734;9.152;2023-04-15T05:13:56;3.20;97.60
947;DHT22;460;48.734;9.152;2023-04-15T05:16:24;3.20;97.50
947;DHT22;460;48.734;9.152;2023-04-15T05:18:51;3.20;97.30
947;DHT22;460;48.734;9.152;2023-04-15T05:21:18;3.20;97.30
947;DHT22;460;48.734;9.152;2023-04-15T05:23:45;3.30;97.20
947;DHT22;460;48.734;9.152;2023-04-15T05:26:13;3.30;97.30
947;DHT22;460;48.734;9.152;2023-04-15T05:28:40;3.30;97.30
947;DHT22;460;48.734;9.152;2023-04-15T05:31:07;3.30;97.50
947;DHT22;460;48.734;9.152;2023-04-15T05:33:34;3.50;97.40
947;DHT22;460;48.734;9.152;2023-04-15T05:36:00;3.60;97.30
947;DHT22;460;48.734;9.152;2023-04-15T05:38:27;3.70;97.20
947;DHT22;460;48.734;9.152;2023-04-15T05:40:54;3.80;96.90
947;DHT22;460;48.734;9.152;2023-04-15T05:43:22;4.00;96.70
947;DHT22;460;48.734;9.152;2023-04-15T05:45:49;4.00;96.70
947;DHT22;460;48.734;9.152;2023-04-15T05:48:16;4.20;96.90
947;DHT22;460;48.734;9.152;2023-04-15T05:50:42;4.20;96.70
947;DHT22;460;48.734;9.152;2023-04-15T05:53:10;4.30;96.50
947;DHT22;460;48.734;9.152;2023-04-15T05:55:36;4.40;96.60
947;DHT22;460;48.734;9.152;2023-04-15T05:58:03;4.50;96.30
947;DHT22;460;48.734;9.152;2023-04-15T06:00:31;4.70;96.20
947;DHT22;460;48.734;9.152;2023-04-15T06:02:58;4.80;95.90
947;DHT22;460;48.734;9.152;2023-04-15T06:05:25;4.90;96.10
947;DHT22;460;48.734;9.152;2023-04-15T06:07:52;5.00;95.70
947;DHT22;460;48.734;9.152;2023-04-15T06:10:19;5.00;95.70
947;DHT22;460;48.734;9.152;2023-04-15T06:12:45;5.10;95.20
947;DHT22;460;48.734;9.152;2023-04-15T06:15:12;5.20;95.20
947;DHT22;460;48.734;9.152;2023-04-15T06:17:40;5.30;95.10
947;DHT22;460;48.734;9.152;2023-04-15T06:20:08;5.40;94.90
947;DHT22;460;48.734;9.152;2023-04-15T06:22:36;5.60;94.90
947;DHT22;460;48.734;9.152;2023-04-15T06:25:04;5.70;94.80
947;DHT22;460;48.734;9.152;2023-04-15T06:27:32;5.80;94.60
947;DHT22;460;48.734;9.152;2023-04-15T06:29:59;6.00;94.60
947;DHT22;460;48.734;9.152;2023-04-15T06:32:26;6.00;94.20
947;DHT22;460;48.734;9.152;2023-04-15T06:34:54;6.30;94.30
947;DHT22;460;48.734;9.152;2023-04-15T06:37:21;6.50;94.40
947;DHT22;460;48.734;9.152;2023-04-15T06:39:47;6.50;94.10
947;DHT22;460;48.734;9.152;2023-04-15T06:42:15;6.60;94.20
947;DHT22;460;48.734;9.152;2023-04-15T06:44:41;6.70;94.60
947;DHT22;460;48.734;9.152;2023-04-15T06:47:08;6.80;94.00
947;DHT22;460;48.734;9.152;2023-04-15T06:49:37;6.90;93.60
947;DHT22;460;48.734;9.152;2023-04-15T06:52:06;7.00;93.40
947;DHT22;460;48.734;9.152;2023-04-15T06:54:33;7.30;93.30
947;DHT22;460;48.734;9.152;2023-04-15T06:57:00;7.30;93.20
947;DHT22;460;48.734;9.152;2023-04-15T06:59:26;7.50;93.80
947;DHT22;460;48.734;9.152;2023-04-15T07:01:53;7.60;93.20
947;DHT22;460;48.734;9.152;2023-04-15T07:04:20;7.70;92.60
947;DHT22;460;48.734;9.152;2023-04-15T07:06:47;7.80;92.60
947;DHT22;460;48.734;9.152;2023-04-15T07:09:15;7.90;92.10
947;DHT22;460;48.734;9.152;2023-04-15T07:11:41;8.00;92.30
947;DHT22;460;48.734;9.152;2023-04-15T07:14:08;8.00;92.10
947;DHT22;460;48.734;9.152;2023-04-15T07:16:47;8.00;91.90
947;DHT22;460;48.734;9.152;2023-04-15T07:19:17;8.10;92.00
947;DHT22;460;48.734;9.152;2023-04-15T07:21:43;8.30;92.00
947;DHT22;460;48.734;9.152;2023-04-15T07:24:10;8.40;91.80
947;DHT22;460;48.734;9.152;2023-04-15T07:26:38;8.40;91.60
947;DHT22;460;48.734;9.152;2023-04-15T07:29:05;8.50;91.40
947;DHT22;460;48.734;9.152;2023-04-15T07:31:32;8.50;91.00
947;DHT22;460;48.734;9.152;2023-04-15T07:33:59;8.60;91.50
947;DHT22;460;48.734;9.152;2023-04-15T07:36:25;8.90;91.80
947;DHT22;460;48.734;9.152;2023-04-15T07:38:53;9.00;91.30
947;DHT22;460;48.734;9.152;2023-04-15T07:41:20;9.20;91.20
947;DHT22;460;48.734;9.152;2023-04-15T07:43:48;9.30;90.30
947;DHT22;460;48.734;9.152;2023-04-15T07:46:16;9.60;90.20
947;DHT22;460;48.734;9.152;2023-04-15T07:48:42;9.80;90.00
947;DHT22;460;48.734;9.152;2023-04-15T07:51:09;9.80;85.50
947;DHT22;460;48.734;9.152;2023-04-15T07:53:37;9.80;86.00
947;DHT22;460;48.734;9.152;2023-04-15T07:56:04;9.80;84.70
947;DHT22;460;48.734;9.152;2023-04-15T07:58:31;9.80;84.50
947;DHT22;460;48.734;9.152;2023-04-15T08:00:59;9.80;82.60
947;DHT22;460;48.734;9.152;2023-04-15T08:03:26;9.90;83.40
947;DHT22;460;48.734;9.152;2023-04-15T08:05:53;9.90;85.10
947;DHT22;460;48.734;9.152;2023-04-15T08:08:20;10.00;84.80
947;DHT22;460;48.734;9.152;2023-04-15T08:10:46;9.90;86.20
947;DHT22;460;48.734;9.152;2023-04-15T08:13:13;9.80;85.50
947;DHT22;460;48.734;9.152;2023-04-15T08:15:40;10.00;85.10
947;DHT22;460;48.734;9.152;2023-04-15T08:18:09;10.10;83.90
947;DHT22;460;48.734;9.152;2023-04-15T08:20:35;10.30;84.00
947;DHT22;460;48.734;9.152;2023-04-15T08:23:03;10.40;83.70
947;DHT22;460;48.734;9.152;2023-04-15T08:25:30;10.60;82.50
947;DHT22;460;48.734;9.152;2023-04-15T08:27:57;10.80;83.10
947;DHT22;460;48.734;9.152;2023-04-15T08:30:23;10.80;81.50
947;DHT22;460;48.734;9.152;2023-04-15T08:32:50;10.70;77.10
947;DHT22;460;48.734;9.152;2023-04-15T08:35:18;10.70;80.00
947;DHT22;460;48.734;9.152;2023-04-15T08:37:45;10.70;79.00
947;DHT22;460;48.734;9.152;2023-04-15T08:40:12;10.80;80.40
947;DHT22;460;48.734;9.152;2023-04-15T08:42:43;10.80;78.60
947;DHT22;460;48.734;9.152;2023-04-15T08:45:10;11.10;78.30
947;DHT22;460;48.734;9.152;2023-04-15T08:47:38;11.30;78.30
947;DHT22;460;48.734;9.152;2023-04-15T08:50:08;11.30;77.60
947;DHT22;460;48.734;9.152;2023-04-15T08:52:38;11.40;77.70
947;DHT22;460;48.734;9.152;2023-04-15T08:55:07;11.60;77.50
947;DHT22;460;48.734;9.152;2023-04-15T08:57:35;11.60;76.80
947;DHT22;460;48.734;9.152;2023-04-15T09:00:03;11.70;77.30
947;DHT22;460;48.734;9.152;2023-04-15T09:02:30;11.80;76.10
947;DHT22;460;48.734;9.152;2023-04-15T09:04:57;12.00;72.40
947;DHT22;460;48.734;9.152;2023-04-15T09:07:24;12.30;73.50
947;DHT22;460;48.734;9.152;2023-04-15T09:09:52;12.50;75.60
947;DHT22;460;48.734;9.152;2023-04-15T09:12:19;12.60;72.90
947;DHT22;460;48.734;9.152;2023-04-15T09:14:46;12.60;71.40
947;DHT22;460;48.734;9.152;2023-04-15T09:17:18;12.50;70.00
947;DHT22;460;48.734;9.152;2023-04-15T09:19:45;12.30;69.10
947;DHT22;460;48.734;9.152;2023-04-15T09:22:12;12.30;69.40
947;DHT22;460;48.734;9.152;2023-04-15T09:24:39;12.50;70.00
947;DHT22;460;48.734;9.152;2023-04-15T09:27:09;12.60;67.10
947;DHT22;460;48.734;9.152;2023-04-15T09:29:36;12.90;70.30
947;DHT22;460;48.734;9.152;2023-04-15T09:32:10;13.00;68.80
947;DHT22;460;48.734;9.152;2023-04-15T09:34:37;13.20;70.10
947;DHT22;460;48.734;9.152;2023-04-15T09:37:03;13.20;65.70
947;DHT22;460;48.734;9.152;2023-04-15T09:39:44;13.30;67.40
947;DHT22;460;48.734;9.152;2023-04-15T09:42:17;13.40;67.70
947;DHT22;460;48.734;9.152;2023-04-15T09:44:48;13.50;66.60
947;DHT22;460;48.734;9.152;2023-04-15T09:47:28;13.50;67.80
947;DHT22;460;48.734;9.152;2023-04-15T09:49:56;13.60;67.50
947;DHT22;460;48.734;9.152;2023-04-15T09:52:26;13.50;62.60
947;DHT22;460;48.734;9.152;2023-04-15T09:54:54;13.60;65.30
947;DHT22;460;48.734;9.152;2023-04-15T09:57:23;13.70;66.70
947;DHT22;460;48.734;9.152;2023-04-15T09:59:50;13.40;61.50
947;DHT22;460;48.734;9.152;2023-04-15T10:02:18;13.40;65.10
947;DHT22;460;48.734;9.152;2023-04-15T10:04:47;13.70;67.50
947;DHT22;460;48.734;9.152;2023-04-15T10:07:15;13.80;66.60
947;DHT22;460;48.734;9.152;2023-04-15T10:09:45;13.70;61.60
947;DHT22;460;48.734;9.152;2023-04-15T10:12:12;13.50;59.10
947;DHT22;460;48.734;9.152;2023-04-15T10:14:42;13.20;59.40
947;DHT22;460;48.734;9.152;2023-04-15T10:17:10;13.30;60.20
947;DHT22;460;48.734;9.152;2023-04-15T10:19:38;13.40;63.80
947;DHT22;460;48.734;9.152;2023-04-15T10:22:06;13.40;62.10
947;DHT22;460;48.734;9.152;2023-04-15T10:24:33;13.10;62.40
947;DHT22;460;48.734;9.152;2023-04-15T10:27:00;13.20;64.30
947;DHT22;460;48.734;9.152;2023-04-15T10:29:29;13.30;64.10
947;DHT22;460;48.734;9.152;2023-04-15T10:31:58;13.30;62.90
947;DHT22;460;48.734;9.152;2023-04-15T10:34:26;13.40;63.70
947;DHT22;460;48.734;9.152;2023-04-15T10:36:54;13.40;62.40
947;DHT22;460;48.734;9.152;2023-04-15T10:39:41;13.40;62.70
947;DHT22;460;48.734;9.152;2023-04-15T10:42:09;13.60;61.80
947;DHT22;460;48.734;9.152;2023-04-15T10:44:37;13.70;62.40
947;DHT22;460;48.734;9.152;2023-04-15T10:47:09;13.90;61.90
947;DHT22;460;48.734;9.152;2023-04-15T10:49:47;13.90;61.90
947;DHT22;460;48.734;9.152;2023-04-15T10:52:15;14.00;64.90
947;DHT22;460;48.734;9.152;2023-04-15T10:54:43;14.00;61.20
947;DHT22;460;48.734;9.152;2023-04-15T10:57:15;14.10;62.10
947;DHT22;460;48.734;9.152;2023-04-15T11:00:03;14.00;59.60
947;DHT22;460;48.734;9.152;2023-04-15T11:02:42;14.00;63.30
947;DHT22;460;48.734;9.152;2023-04-15T11:05:10;14.30;62.80
947;DHT22;460;48.734;9.152;2023-04-15T11:07:48;14.20;64.10
947;DHT22;460;48.734;9.152;2023-04-15T11:13:20;14.00;63.60
947;DHT22;460;48.734;9.152;2023-04-15T11:15:50;13.70;61.80
947;DHT22;460;48.734;9.152;2023-04-15T11:18:26;13.60;63.00
947;DHT22;460;48.734;9.152;2023-04-15T11:20:56;13.50;62.80
947;DHT22;460;48.734;9.152;2023-04-15T11:23:28;13.20;63.00
947;DHT22;460;48.734;9.152;2023-04-15T11:25:56;13.10;65.90
947;DHT22;460;48.734;9.152;2023-04-15T11:28:25;13.00;65.30
947;DHT22;460;48.734;9.152;2023-04-15T11:30:53;12.90;64.80
947;DHT22;460;48.734;9.152;2023-04-15T11:33:22;13.00;64.20
947;DHT22;460;48.734;9.152;2023-04-15T11:35:49;13.60;65.50
947;DHT22;460;48.734;9.152;2023-04-15T11:38:18;14.20;63.00
947;DHT22;460;48.734;9.152;2023-04-15T11:40:45;14.60;62.00
947;DHT22;460;48.734;9.152;2023-04-15T11:43:13;14.90;59.40
947;DHT22;460;48.734;9.152;2023-04-15T11:45:48;14.90;60.00
947;DHT22;460;48.734;9.152;2023-04-15T11:48:16;14.70;58.70
947;DHT22;460;48.734;9.152;2023-04-15T11:50:45;14.20;58.50
947;DHT22;460;48.734;9.152;2023-04-15T11:53:12;13.90;59.20
947;DHT22;460;48.734;9.152;2023-04-15T11:55:41;14.10;61.40
947;DHT22;460;48.734;9.152;2023-04-15T11:58:10;14.20;63.90
947;DHT22;460;48.734;9.152;2023-04-15T12:00:37;13.80;59.80
947;DHT22;460;48.734;9.152;2023-04-15T12:03:12;13.50;64.00
947;DHT22;460;48.734;9.152;2023-04-15T12:06:05;13.50;65.90
947;DHT22;460;48.734;9.152;2023-04-15T12:08:48;13.10;65.10
947;DHT22;460;48.734;9.152;2023-04-15T12:11:14;13.00;67.90
947;DHT22;460;48.734;9.152;2023-04-15T12:13:43;13.40;67.60
947;DHT22;460;48.734;9.152;2023-04-15T12:16:09;14.00;66.80
947;DHT22;460;48.734;9.152;2023-04-15T12:18:36;14.60;65.20
947;DHT22;460;48.734;9.152;2023-04-15T12:21:08;15.10;64.60
947;DHT22;460;48.734;9.152;2023-04-15T12:23:36;15.30;60.50
947;DHT22;460;48.734;9.152;2023-04-15T12:26:04;15.30;59.90
947;DHT22;460;48.734;9.152;2023-04-15T12:28:31;15.30;60.30
947;DHT22;460;48.734;9.152;2023-04-15T12:31:05;14.80;59.20
947;DHT22;460;48.734;9.152;2023-04-15T12:33:46;14.70;59.30
947;DHT22;460;48.734;9.152;2023-04-15T12:36:15;14.40;58.30
947;DHT22;460;48.734;9.152;2023-04-15T12:38:42;14.10;57.90
947;DHT22;460;48.734;9.152;2023-04-15T12:41:09;14.30;60.40
947;DHT22;460;48.734;9.152;2023-04-15T12:43:36;14.30;61.60
947;DHT22;460;48.734;9.152;2023-04-15T12:46:02;14.20;63.90
947;DHT22;460;48.734;9.152;2023-04-15T12:48:34;13.80;66.00
947;DHT22;460;48.734;9.152;2023-04-15T12:51:00;13.70;67.20
947;DHT22;460;48.734;9.152;2023-04-15T12:53:29;13.70;66.60
947;DHT22;460;48.734;9.152;2023-04-15T12:55:55;13.20;68.50
947;DHT22;460;48.734;9.152;2023-04-15T12:58:22;13.00;70.40
947;DHT22;460;48.734;9.152;2023-04-15T13:00:49;12.80;72.90
947;DHT22;460;48.734;9.152;2023-04-15T13:03:16;12.70;73.60
947;DHT22;460;48.734;9.152;2023-04-15T13:05:43;12.80;74.20
947;DHT22;460;48.734;9.152;2023-04-15T13:08:10;12.90;75.20
947;DHT22;460;48.734;9.152;2023-04-15T13:10:38;12.90;74.00
947;DHT22;460;48.734;9.152;2023-04-15T13:13:05;13.00;74.40
947;DHT22;460;48.734;9.152;2023-04-15T13:15:32;12.80;71.30
947;DHT22;460;48.734;9.152;2023-04-15T13:17:59;12.80;72.20
947;DHT22;460;48.734;9.152;2023-04-15T13:20:26;12.70;71.90
947;DHT22;460;48.734;9.152;2023-04-15T13:22:53;12.80;71.70
947;DHT22;460;48.734;9.152;2023-04-15T13:25:20;12.70;71.60
947;DHT22;460;48.734;9.152;2023-04-15T13:27:48;12.50;70.50
947;DHT22;460;48.734;9.152;2023-04-15T13:30:15;12.60;69.90
947;DHT22;460;48.734;9.152;2023-04-15T13:32:42;12.70;69.50
947;DHT22;460;48.734;9.152;2023-04-15T13:35:09;12.70;69.40
947;DHT22;460;48.734;9.152;2023-04-15T13:37:36;12.70;71.10
947;DHT22;460;48.734;9.152;2023-04-15T13:40:04;12.70;69.40
947;DHT22;460;48.734;9.152;2023-04-15T13:42:32;12.70;70.10
947;DHT22;460;48.734;9.152;2023-04-15T13:45:00;12.40;69.30
947;DHT22;460;48.734;9.152;2023-04-15T13:47:27;12.40;69.30
947;DHT22;460;48.734;9.152;2023-04-15T13:49:54;12.20;68.40
947;DHT22;460;48.734;9.152;2023-04-15T13:52:21;11.90;65.10
947;DHT22;460;48.734;9.152;2023-04-15T13:54:48;12.00;67.40
947;DHT22;460;48.734;9.152;2023-04-15T13:57:15;12.10;65.20
947;DHT22;460;48.734;9.152;2023-04-15T13:59:42;12.10;64.30
947;DHT22;460;48.734;9.152;2023-04-15T14:02:10;12.20;62.30
947;DHT22;460;48.734;9.152;2023-04-15T14:04:37;12.10;62.60
947;DHT22;460;48.734;9.152;2023-04-15T14:07:04;12.30;62.70
947;DHT22;460;48.734;9.152;2023-04-15T14:09:31;12.40;62.90
947;DHT22;460;48.734;9.152;2023-04-15T14:11:58;12.10;58.90
947;DHT22;460;48.734;9.152;2023-04-15T14:14:25;12.00;60.70
947;DHT22;460;48.734;9.152;2023-04-15T14:16:53;12.00;60.80
947;DHT22;460;48.734;9.152;2023-04-15T14:19:21;11.90;57.80
947;DHT22;460;48.734;9.152;2023-04-15T14:21:49;11.90;57.50
947;DHT22;460;48.734;9.152;2023-04-15T14:24:15;11.90;58.20
947;DHT22;460;48.734;9.152;2023-04-15T14:26:42;11.60;55.80
947;DHT22;460;48.734;9.152;2023-04-15T14:29:09;11.50;56.50
947;DHT22;460;48.734;9.152;2023-04-15T14:31:36;11.40;56.20
947;DHT22;460;48.734;9.152;2023-04-15T14:34:03;11.30;55.90
947;DHT22;460;48.734;9.152;2023-04-15T14:36:31;11.30;55.90
947;DHT22;460;48.734;9.152;2023-04-15T14:38:58;11.20;55.80
947;DHT22;460;48.734;9.152;2023-04-15T14:41:25;11.30;57.00
947;DHT22;460;48.734;9.152;2023-04-15T14:43:52;11.10;56.80
947;DHT22;460;48.734;9.152;2023-04-15T14:46:19;11.10;57.80
947;DHT22;460;48.734;9.152;2023-04-15T14:48:45;11.30;58.60
947;DHT22;460;48.734;9.152;2023-04-15T14:51:12;11.20;58.60
947;DHT22;460;48.734;9.152;2023-04-15T14:53:40;11.10;58.60
947;DHT22;460;48.734;9.152;2023-04-15T14:56:08;11.00;59.00
947;DHT22;460;48.734;9.152;2023-04-15T14:58:35;11.00;59.70
947;DHT22;460;48.734;9.152;2023-04-15T15:01:02;10.90;59.30
947;DHT22;460;48.734;9.152;2023-04-15T15:03:29;10.80;58.90
947;DHT22;460;48.734;9.152;2023-04-15T15:05:56;10.80;59.20
947;DHT22;460;48.734;9.152;2023-04-15T15:08:23;10.70;60.00
947;DHT22;460;48.734;9.152;2023-04-15T15:10:51;10.60;60.30
947;DHT22;460;48.734;9.152;2023-04-15T15:13:18;10.60;61.30
947;DHT22;460;48.734;9.152;2023-04-15T15:15:45;10.50;61.30
947;DHT22;460;48.734;9.152;2023-04-15T15:18:13;10.40;62.80
947;DHT22;460;48.734;9.152;2023-04-15T15:20:41;10.20;62.80
947;DHT22;460;48.734;9.152;2023-04-15T15:23:08;10.20;64.10
947;DHT22;460;48.734;9.152;2023-04-15T15:25:35;10.00;65.20
947;DHT22;460;48.734;9.152;2023-04-15T15:28:03;10.00;65.90
947;DHT22;460;48.734;9.152;2023-04-15T15:30:30;9.90;67.90
947;DHT22;460;48.734;9.152;2023-04-15T15:32:57;9.90;68.10
947;DHT22;460;48.734;9.152;2023-04-15T15:35:24;9.90;69.40
947;DHT22;460;48.734;9.152;2023-04-15T15:37:51;10.00;68.30
947;DHT22;460;48.734;9.152;2023-04-15T15:40:19;9.90;69.50
947;DHT22;460;48.734;9.152;2023-04-15T15:42:46;10.10;69.70
947;DHT22;460;48.734;9.152;2023-04-15T15:45:16;10.10;70.60
947;DHT22;460;48.734;9.152;2023-04-15T15:47:42;10.00;72.00
947;DHT22;460;48.734;9.152;2023-04-15T15:50:09;10.00;73.80
947;DHT22;460;48.734;9.152;2023-04-15T15:52:36;9.90;75.40
947;DHT22;460;48.734;9.152;2023-04-15T15:55:04;9.90;75.30
947;DHT22;460;48.734;9.152;2023-04-15T15:57:31;9.90;74.40
947;DHT22;460;48.734;9.152;2023-04-15T15:59:58;9.90;75.30
947;DHT22;460;48.734;9.152;2023-04-15T16:02:26;9.90;76.70
947;DHT22;460;48.734;9.152;2023-04-15T16:04:54;9.90;77.50
947;DHT22;460;48.734;9.152;2023-04-15T16:07:21;9.90;75.50
947;DHT22;460;48.734;9.152;2023-04-15T16:09:48;9.90;75.70
947;DHT22;460;48.734;9.152;2023-04-15T16:15:27;10.00;73.80
947;DHT22;460;48.734;9.152;2023-04-15T16:17:57;9.80;75.20
947;DHT22;460;48.734;9.152;2023-04-15T16:20:24;9.90;75.30
947;DHT22;460;48.734;9.152;2023-04-15T16:22:51;10.00;72.10
947;DHT22;460;48.734;9.152;2023-04-15T16:25:18;9.90;72.90
947;DHT22;460;48.734;9.152;2023-04-15T16:27:44;9.90;74.70
947;DHT22;460;48.734;9.152;2023-04-15T16:30:12;10.00;75.70
947;DHT22;460;48.734;9.152;2023-04-15T16:32:39;9.90;77.90
947;DHT22;460;48.734;9.152;2023-04-15T16:35:08;9.90;81.20
947;DHT22;460;48.734;9.152;2023-04-15T16:37:36;9.90;83.60
947;DHT22;460;48.734;9.152;2023-04-15T16:40:03;9.90;85.10
947;DHT22;460;48.734;9.152;2023-04-15T16:42:30;9.70;87.80
947;DHT22;460;48.734;9.152;2023-04-15T16:44:56;9.50;89.90
947;DHT22;460;48.734;9.152;2023-04-15T16:47:24;9.40;90.60
947;DHT22;460;48.734;9.152;2023-04-15T16:49:50;9.40;91.00
947;DHT22;460;48.734;9.152;2023-04-15T16:52:18;9.20;91.90
947;DHT22;460;48.734;9.152;2023-04-15T16:54:45;9.20;92.80
947;DHT22;460;48.734;9.152;2023-04-15T16:57:12;9.30;93.50